Terminal Aerodrome Forecast
Issued by NWS

Home | Current Version | Previous Version | Graphics & Text | Print | Product List | Glossary On
Versions: 1 2 3 4 5 6 7 8 9 10 11 12 13 14 15 16 17 18 19 20 21 22 23
629
FTUS43 KLSX 231739
TAFSUS
TAF
KSUS 231739Z 2318/2418 VRB03KT P6SM BKN120
     FM232000 14007KT P6SM BKN120
     FM240600 19009KT P6SM BKN120
     FM241500 23013KT P6SM BKN080=

USA.gov is the U.S. government's official web portal to all federal, state and local government web resources and services.